Noxapater, Mississippi
Current Conditions -  °F | °C
As of 10:55 AM on Tuesday 27 Jan 2015 (Local Time) from KSTF Reporting Station
Clear Clear  
Wind Chill: 55°   Ceiling: Unl
Heat Index: 55°   Visibility: 10mi
Dew Point: 37°   Wind: 9mph
Humidity: 51%   Direction: 320°NW
Pressure: 30.1"   Gusts: 16mph
Location:  32.99°N, 89.07°W
Report Text: KSTF 271655Z AUTO 32008G14KT 292V352 10SM CLR 13/03 A3010 RMK AO2
Loading
Personal Weather Stations






























Interactive Weather Map New forecast layout! Learn more

10-Day Weather Forecast

Advertisements
Track Severe Weather on mobile